VYMD/MDL METAR and TAF weather

Enter ICAO airport designator
Station Type Date Time Source
VYMD METAR 2021/02/25 11:30 UTC NOAA

VYMD 251130Z 18003KT 6000 NSC 33/12 Q1004 NOSIG


Station Type Date Time Source
VYMD Decoded METAR 2021/02/25 11:30 UTC NOAA

Station name not available
Feb 25, 2021 - 06:30 AM EST / 2021.02.25 1130 UTC
Wind: from the S (180 degrees) at 3 MPH (3 KT):0
Visibility: 3 mile(s):0
Temperature: 91 F (33 C)
Dew Point: 53 F (12 C)
Relative Humidity: 27%
Pressure (altimeter): 29.65 in. Hg (1004 hPa)
ob: VYMD 251130Z 18003KT 6000 NSC 33/12 Q1004 NOSIG
cycle: 11

Station Type Date Time Source
VYMD TAF 2021/02/25 12:00 UTC NOAA

TAF VYMD 251100Z 2512/2612 18005KT 7000 NSC
TEMPO 2512/2518 17010KT 6000 FEW020

Example: see airport list